sensor_id;sensor_type;location;lat;lon;timestamp;pressure;altitude;pressure_sealevel;temperature;humidity
54038;BME280;39954;48.844;9.726;2024-03-02T00:00:44;94987.22;;;3.19;100.00
54038;BME280;39954;48.844;9.726;2024-03-02T00:01:49;94988.06;;;3.20;100.00
54038;BME280;39954;48.844;9.726;2024-03-02T00:02:51;94997.47;;;3.19;100.00
54038;BME280;39954;48.844;9.726;2024-03-02T00:03:56;94991.31;;;3.23;100.00
54038;BME280;39954;48.844;9.726;2024-03-02T00:04:59;94990.50;;;3.23;100.00
54038;BME280;39954;48.844;9.726;2024-03-02T00:06:04;94995.00;;;3.18;100.00
54038;BME280;39954;48.844;9.726;2024-03-02T00:07:07;94994.19;;;3.17;100.00
54038;BME280;39954;48.844;9.726;2024-03-02T00:08:13;94999.94;;;3.22;100.00
54038;BME280;39954;48.844;9.726;2024-03-02T00:09:20;94999.16;;;3.20;100.00
54038;BME280;39954;48.844;9.726;2024-03-02T00:10:27;94997.84;;;3.11;100.00
54038;BME280;39954;48.844;9.726;2024-03-02T00:11:36;95001.66;;;3.03;100.00
54038;BME280;39954;48.844;9.726;2024-03-02T00:12:42;95007.81;;;2.99;100.00
54038;BME280;39954;48.844;9.726;2024-03-02T00:13:45;95007.69;;;3.02;100.00
54038;BME280;39954;48.844;9.726;2024-03-02T00:14:50;95008.72;;;2.98;100.00
54038;BME280;39954;48.844;9.726;2024-03-02T00:15:53;95005.25;;;2.99;100.00
54038;BME280;39954;48.844;9.726;2024-03-02T00:17:02;95005.47;;;2.94;100.00
54038;BME280;39954;48.844;9.726;2024-03-02T00:18:04;95006.53;;;2.88;100.00
54038;BME280;39954;48.844;9.726;2024-03-02T00:19:10;94997.34;;;2.84;100.00
54038;BME280;39954;48.844;9.726;2024-03-02T00:20:18;94999.25;;;2.79;100.00
54038;BME280;39954;48.844;9.726;2024-03-02T00:21:27;95000.31;;;2.75;100.00
54038;BME280;39954;48.844;9.726;2024-03-02T00:22:31;95005.56;;;2.72;100.00
54038;BME280;39954;48.844;9.726;2024-03-02T00:23:36;95004.84;;;2.68;100.00
54038;BME280;39954;48.844;9.726;2024-03-02T00:24:39;95008.50;;;2.63;100.00
54038;BME280;39954;48.844;9.726;2024-03-02T00:25:47;95009.56;;;2.59;100.00
54038;BME280;39954;48.844;9.726;2024-03-02T00:26:52;95003.78;;;2.54;100.00
54038;BME280;39954;48.844;9.726;2024-03-02T00:27:57;95007.41;;;2.50;100.00
54038;BME280;39954;48.844;9.726;2024-03-02T00:28:59;95009.31;;;2.44;100.00
54038;BME280;39954;48.844;9.726;2024-03-02T00:30:06;95011.19;;;2.41;100.00
54038;BME280;39954;48.844;9.726;2024-03-02T00:31:28;95004.59;;;2.35;100.00
54038;BME280;39954;48.844;9.726;2024-03-02T00:32:33;95005.59;;;2.31;100.00
54038;BME280;39954;48.844;9.726;2024-03-02T00:33:37;95007.47;;;2.28;100.00
54038;BME280;39954;48.844;9.726;2024-03-02T00:34:44;95016.97;;;2.24;100.00
54038;BME280;39954;48.844;9.726;2024-03-02T00:35:46;95011.97;;;2.21;100.00
54038;BME280;39954;48.844;9.726;2024-03-02T00:36:48;95018.94;;;2.19;100.00
54038;BME280;39954;48.844;9.726;2024-03-02T00:37:54;95011.38;;;2.16;100.00
54038;BME280;39954;48.844;9.726;2024-03-02T00:38:56;95010.50;;;2.15;100.00
54038;BME280;39954;48.844;9.726;2024-03-02T00:40:02;95015.72;;;2.14;100.00
54038;BME280;39954;48.844;9.726;2024-03-02T00:41:07;95011.47;;;2.13;100.00
54038;BME280;39954;48.844;9.726;2024-03-02T00:42:14;95014.94;;;2.12;100.00
54038;BME280;39954;48.844;9.726;2024-03-02T00:43:43;95021.91;;;2.08;100.00
54038;BME280;39954;48.844;9.726;2024-03-02T00:44:49;95015.97;;;2.08;100.00
54038;BME280;39954;48.844;9.726;2024-03-02T00:45:53;95011.59;;;2.10;100.00
54038;BME280;39954;48.844;9.726;2024-03-02T00:46:56;95009.03;;;2.10;100.00
54038;BME280;39954;48.844;9.726;2024-03-02T00:48:04;95018.41;;;2.11;100.00
54038;BME280;39954;48.844;9.726;2024-03-02T00:49:12;95017.63;;;2.09;100.00
54038;BME280;39954;48.844;9.726;2024-03-02T00:50:21;95020.13;;;2.10;100.00
54038;BME280;39954;48.844;9.726;2024-03-02T00:51:32;95022.75;;;2.09;100.00
54038;BME280;39954;48.844;9.726;2024-03-02T00:52:38;95024.53;;;2.07;100.00
54038;BME280;39954;48.844;9.726;2024-03-02T00:53:41;95024.53;;;2.07;100.00
54038;BME280;39954;48.844;9.726;2024-03-02T00:54:43;95023.78;;;2.05;100.00
54038;BME280;39954;48.844;9.726;2024-03-02T00:55:50;95025.47;;;2.04;100.00
54038;BME280;39954;48.844;9.726;2024-03-02T00:56:53;95031.56;;;2.01;100.00
54038;BME280;39954;48.844;9.726;2024-03-02T00:58:01;95030.75;;;2.01;100.00
54038;BME280;39954;48.844;9.726;2024-03-02T00:59:05;95026.56;;;1.98;100.00
54038;BME280;39954;48.844;9.726;2024-03-02T01:00:09;95031.69;;;1.98;100.00
54038;BME280;39954;48.844;9.726;2024-03-02T01:01:14;95030.03;;;1.97;100.00
54038;BME280;39954;48.844;9.726;2024-03-02T01:02:19;95026.66;;;1.97;100.00
54038;BME280;39954;48.844;9.726;2024-03-02T01:03:21;95024.00;;;1.98;100.00
54038;BME280;39954;48.844;9.726;2024-03-02T01:04:24;95035.94;;;1.99;100.00
54038;BME280;39954;48.844;9.726;2024-03-02T01:05:28;95033.38;;;1.99;100.00
54038;BME280;39954;48.844;9.726;2024-03-02T01:06:30;95030.03;;;1.97;100.00
54038;BME280;39954;48.844;9.726;2024-03-02T01:07:37;95033.50;;;1.96;100.00
54038;BME280;39954;48.844;9.726;2024-03-02T01:08:40;95024.00;;;1.98;100.00
54038;BME280;39954;48.844;9.726;2024-03-02T01:09:42;95030.81;;;1.99;100.00
54038;BME280;39954;48.844;9.726;2024-03-02T01:10:46;95031.81;;;1.95;100.00
54038;BME280;39954;48.844;9.726;2024-03-02T01:11:49;95032.59;;;1.97;100.00
54038;BME280;39954;48.844;9.726;2024-03-02T01:12:53;95033.50;;;1.96;100.00
54038;BME280;39954;48.844;9.726;2024-03-02T01:13:58;95030.16;;;1.94;100.00
54038;BME280;39954;48.844;9.726;2024-03-02T01:15:04;95038.75;;;1.93;100.00
54038;BME280;39954;48.844;9.726;2024-03-02T01:16:09;95031.94;;;1.92;100.00
54038;BME280;39954;48.844;9.726;2024-03-02T01:17:14;95024.25;;;1.92;100.00
54038;BME280;39954;48.844;9.726;2024-03-02T01:18:16;95027.72;;;1.91;100.00
54038;BME280;39954;48.844;9.726;2024-03-02T01:19:19;95036.28;;;1.90;100.00
54038;BME280;39954;48.844;9.726;2024-03-02T01:20:23;95029.59;;;1.88;100.00
54038;BME280;39954;48.844;9.726;2024-03-02T01:21:26;95033.84;;;1.87;100.00
54038;BME280;39954;48.844;9.726;2024-03-02T01:22:28;95027.06;;;1.86;100.00
54038;BME280;39954;48.844;9.726;2024-03-02T01:23:33;95027.06;;;1.86;100.00
54038;BME280;39954;48.844;9.726;2024-03-02T01:24:35;95029.63;;;1.86;100.00
54038;BME280;39954;48.844;9.726;2024-03-02T01:25:40;95030.53;;;1.85;100.00
54038;BME280;39954;48.844;9.726;2024-03-02T01:26:42;95022.84;;;1.85;100.00
54038;BME280;39954;48.844;9.726;2024-03-02T01:27:49;95023.72;;;1.84;100.00
54038;BME280;39954;48.844;9.726;2024-03-02T01:28:51;95023.72;;;1.84;100.00
54038;BME280;39954;48.844;9.726;2024-03-02T01:29:58;95023.72;;;1.84;100.00
54038;BME280;39954;48.844;9.726;2024-03-02T01:31:01;95022.06;;;1.83;100.00
54038;BME280;39954;48.844;9.726;2024-03-02T01:32:06;95022.97;;;1.82;100.00
54038;BME280;39954;48.844;9.726;2024-03-02T01:33:09;95022.97;;;1.82;100.00
54038;BME280;39954;48.844;9.726;2024-03-02T01:34:14;95027.22;;;1.82;100.00
54038;BME280;39954;48.844;9.726;2024-03-02T01:35:16;95021.28;;;1.81;100.00
54038;BME280;39954;48.844;9.726;2024-03-02T01:36:23;95020.50;;;1.79;100.00
54038;BME280;39954;48.844;9.726;2024-03-02T01:37:25;95023.97;;;1.78;100.00
54038;BME280;39954;48.844;9.726;2024-03-02T01:38:30;95023.19;;;1.76;100.00
54038;BME280;39954;48.844;9.726;2024-03-02T01:39:33;95024.09;;;1.75;100.00
54038;BME280;39954;48.844;9.726;2024-03-02T01:40:38;95024.03;;;1.76;100.00
54038;BME280;39954;48.844;9.726;2024-03-02T01:41:40;95024.81;;;1.78;100.00
54038;BME280;39954;48.844;9.726;2024-03-02T01:42:44;95024.75;;;1.80;100.00
54038;BME280;39954;48.844;9.726;2024-03-02T01:43:47;95023.06;;;1.79;100.00
54038;BME280;39954;48.844;9.726;2024-03-02T01:44:52;95029.09;;;1.78;100.00
54038;BME280;39954;48.844;9.726;2024-03-02T01:45:57;95023.97;;;1.78;100.00
54038;BME280;39954;48.844;9.726;2024-03-02T01:47:02;95020.47;;;1.81;100.00
54038;BME280;39954;48.844;9.726;2024-03-02T01:48:05;95018.72;;;1.81;100.00
54038;BME280;39954;48.844;9.726;2024-03-02T01:49:10;95020.41;;;1.82;100.00
54038;BME280;39954;48.844;9.726;2024-03-02T01:50:13;95019.44;;;1.85;100.00
54038;BME280;39954;48.844;9.726;2024-03-02T01:51:15;95016.44;;;1.95;100.00
54038;BME280;39954;48.844;9.726;2024-03-02T01:52:20;95013.88;;;1.95;100.00
54038;BME280;39954;48.844;9.726;2024-03-02T01:53:22;95015.56;;;1.96;100.00
54038;BME280;39954;48.844;9.726;2024-03-02T01:54:27;95014.66;;;1.97;100.00
54038;BME280;39954;48.844;9.726;2024-03-02T01:55:29;95014.66;;;1.97;100.00
54038;BME280;39954;48.844;9.726;2024-03-02T01:56:32;95020.63;;;1.98;100.00
54038;BME280;39954;48.844;9.726;2024-03-02T01:57:37;95017.88;;;2.03;100.00
54038;BME280;39954;48.844;9.726;2024-03-02T01:58:39;95010.97;;;2.05;100.00
54038;BME280;39954;48.844;9.726;2024-03-02T01:59:46;95007.53;;;2.04;100.00
54038;BME280;39954;48.844;9.726;2024-03-02T02:00:49;95008.44;;;2.03;100.00
54038;BME280;39954;48.844;9.726;2024-03-02T02:01:57;95007.38;;;2.09;100.00
54038;BME280;39954;48.844;9.726;2024-03-02T02:02:59;95004.03;;;2.07;100.00
54038;BME280;39954;48.844;9.726;2024-03-02T02:04:04;95007.72;;;2.21;100.00
54038;BME280;39954;48.844;9.726;2024-03-02T02:05:07;95007.50;;;2.26;100.00
54038;BME280;39954;48.844;9.726;2024-03-02T02:06:12;95006.63;;;2.27;100.00
54038;BME280;39954;48.844;9.726;2024-03-02T02:07:14;95002.84;;;2.36;100.00
54038;BME280;39954;48.844;9.726;2024-03-02T02:08:19;95000.72;;;2.45;100.00
54038;BME280;39954;48.844;9.726;2024-03-02T02:09:21;95007.53;;;2.46;100.00
54038;BME280;39954;48.844;9.726;2024-03-02T02:10:26;95006.78;;;2.43;100.00
54038;BME280;39954;48.844;9.726;2024-03-02T02:11:30;95005.91;;;2.44;100.00
54038;BME280;39954;48.844;9.726;2024-03-02T02:12:35;95007.53;;;2.46;100.00
54038;BME280;39954;48.844;9.726;2024-03-02T02:13:38;95007.25;;;2.53;100.00
54038;BME280;39954;48.844;9.726;2024-03-02T02:14:47;95005.34;;;2.58;100.00
54038;BME280;39954;48.844;9.726;2024-03-02T02:15:50;95007.81;;;2.59;100.00
54038;BME280;39954;48.844;9.726;2024-03-02T02:16:58;95005.13;;;2.62;100.00
54038;BME280;39954;48.844;9.726;2024-03-02T02:18:00;95001.78;;;2.60;100.00
54038;BME280;39954;48.844;9.726;2024-03-02T02:19:07;95008.47;;;2.64;100.00
54038;BME280;39954;48.844;9.726;2024-03-02T02:20:11;95009.16;;;2.68;100.00
54038;BME280;39954;48.844;9.726;2024-03-02T02:21:15;95003.16;;;2.69;100.00
54038;BME280;39954;48.844;9.726;2024-03-02T02:22:20;95005.56;;;2.72;100.00
54038;BME280;39954;48.844;9.726;2024-03-02T02:23:25;95003.97;;;2.69;100.00
54038;BME280;39954;48.844;9.726;2024-03-02T02:24:27;95000.59;;;2.69;100.00
54038;BME280;39954;48.844;9.726;2024-03-02T02:25:32;94998.97;;;2.66;100.00
54038;BME280;39954;48.844;9.726;2024-03-02T02:26:34;95002.50;;;2.64;100.00
54038;BME280;39954;48.844;9.726;2024-03-02T02:27:39;94995.06;;;2.58;100.00
54038;BME280;39954;48.844;9.726;2024-03-02T02:28:41;94995.19;;;2.55;100.00
54038;BME280;39954;48.844;9.726;2024-03-02T02:29:48;94992.56;;;2.56;100.00
54038;BME280;39954;48.844;9.726;2024-03-02T02:30:51;94996.09;;;2.54;100.00
54038;BME280;39954;48.844;9.726;2024-03-02T02:31:55;94997.44;;;2.62;100.00
54038;BME280;39954;48.844;9.726;2024-03-02T02:32:58;94994.22;;;2.57;100.00
54038;BME280;39954;48.844;9.726;2024-03-02T02:34:02;94995.78;;;2.61;100.00
54038;BME280;39954;48.844;9.726;2024-03-02T02:35:06;94989.16;;;2.56;100.00
54038;BME280;39954;48.844;9.726;2024-03-02T02:36:09;94989.16;;;2.56;100.00
54038;BME280;39954;48.844;9.726;2024-03-02T02:37:14;94985.91;;;2.52;100.00
54038;BME280;39954;48.844;9.726;2024-03-02T02:38:18;94994.31;;;2.56;100.00
54038;BME280;39954;48.844;9.726;2024-03-02T02:39:23;94992.00;;;2.50;100.00
54038;BME280;39954;48.844;9.726;2024-03-02T02:40:26;94990.44;;;2.45;100.00
54038;BME280;39954;48.844;9.726;2024-03-02T02:41:32;94988.53;;;2.51;100.00
54038;BME280;39954;48.844;9.726;2024-03-02T02:42:35;94994.69;;;2.46;100.00
54038;BME280;39954;48.844;9.726;2024-03-02T02:43:37;94990.44;;;2.45;100.00
54038;BME280;39954;48.844;9.726;2024-03-02T02:44:42;94983.84;;;2.40;100.00
54038;BME280;39954;48.844;9.726;2024-03-02T02:45:44;94992.50;;;2.37;100.00
54038;BME280;39954;48.844;9.726;2024-03-02T02:46:49;94985.63;;;2.38;100.00
54038;BME280;39954;48.844;9.726;2024-03-02T02:47:51;94985.78;;;2.35;100.00
54038;BME280;39954;48.844;9.726;2024-03-02T02:48:56;94984.81;;;2.37;100.00
54038;BME280;39954;48.844;9.726;2024-03-02T02:49:58;94980.47;;;2.39;100.00
54038;BME280;39954;48.844;9.726;2024-03-02T02:51:00;94978.84;;;2.37;100.00
54038;BME280;39954;48.844;9.726;2024-03-02T02:52:05;94972.13;;;2.34;100.00
54038;BME280;39954;48.844;9.726;2024-03-02T02:53:07;94974.88;;;2.30;100.00
54038;BME280;39954;48.844;9.726;2024-03-02T02:54:15;94977.50;;;2.28;100.00
54038;BME280;39954;48.844;9.726;2024-03-02T02:55:18;94970.72;;;2.27;100.00
54038;BME280;39954;48.844;9.726;2024-03-02T02:56:23;94972.66;;;2.22;100.00
54038;BME280;39954;48.844;9.726;2024-03-02T02:57:25;94973.75;;;2.16;100.00
54038;BME280;39954;48.844;9.726;2024-03-02T02:58:27;94979.00;;;2.13;100.00
54038;BME280;39954;48.844;9.726;2024-03-02T02:59:32;94972.41;;;2.08;100.00
54038;BME280;39954;48.844;9.726;2024-03-02T03:00:34;94966.63;;;2.03;100.00
54038;BME280;39954;48.844;9.726;2024-03-02T03:01:39;94977.00;;;1.99;100.00
54038;BME280;39954;48.844;9.726;2024-03-02T03:02:42;94983.97;;;1.96;100.00
54038;BME280;39954;48.844;9.726;2024-03-02T03:03:47;94976.53;;;1.90;100.00
54038;BME280;39954;48.844;9.726;2024-03-02T03:04:49;94970.69;;;1.86;100.00
54038;BME280;39954;48.844;9.726;2024-03-02T03:05:51;94970.81;;;1.83;100.00
54038;BME280;39954;48.844;9.726;2024-03-02T03:06:56;94979.50;;;1.79;100.00
54038;BME280;39954;48.844;9.726;2024-03-02T03:07:58;94972.75;;;1.78;100.00
54038;BME280;39954;48.844;9.726;2024-03-02T03:09:03;94973.78;;;1.74;100.00
54038;BME280;39954;48.844;9.726;2024-03-02T03:10:08;94966.19;;;1.71;100.00
54038;BME280;39954;48.844;9.726;2024-03-02T03:11:13;94973.13;;;1.69;100.00
54038;BME280;39954;48.844;9.726;2024-03-02T03:12:16;94974.91;;;1.67;100.00
54038;BME280;39954;48.844;9.726;2024-03-02T03:13:21;94978.34;;;1.66;100.00
54038;BME280;39954;48.844;9.726;2024-03-02T03:14:23;94975.00;;;1.64;100.00
54038;BME280;39954;48.844;9.726;2024-03-02T03:15:28;94975.84;;;1.64;100.00
54038;BME280;39954;48.844;9.726;2024-03-02T03:16:30;94974.19;;;1.63;100.00
54038;BME280;39954;48.844;9.726;2024-03-02T03:17:35;94983.59;;;1.63;100.00
54038;BME280;39954;48.844;9.726;2024-03-02T03:18:37;94972.50;;;1.62;100.00
54038;BME280;39954;48.844;9.726;2024-03-02T03:19:40;94977.69;;;1.61;100.00
54038;BME280;39954;48.844;9.726;2024-03-02T03:20:45;94982.03;;;1.59;100.00
54038;BME280;39954;48.844;9.726;2024-03-02T03:21:47;94979.59;;;1.55;100.00
54038;BME280;39954;48.844;9.726;2024-03-02T03:22:52;94983.94;;;1.53;100.00
54038;BME280;39954;48.844;9.726;2024-03-02T03:23:54;94980.63;;;1.51;100.00
54038;BME280;39954;48.844;9.726;2024-03-02T03:24:59;94982.41;;;1.49;100.00
54038;BME280;39954;48.844;9.726;2024-03-02T03:26:04;94996.16;;;1.47;100.00
54038;BME280;39954;48.844;9.726;2024-03-02T03:27:09;94995.38;;;1.45;100.00
54038;BME280;39954;48.844;9.726;2024-03-02T03:28:12;94998.00;;;1.43;100.00
54038;BME280;39954;48.844;9.726;2024-03-02T03:29:14;94992.16;;;1.40;100.00
54038;BME280;39954;48.844;9.726;2024-03-02T03:30:19;94983.00;;;1.34;100.00
54038;BME280;39954;48.844;9.726;2024-03-02T03:31:21;94983.19;;;1.29;100.00
54038;BME280;39954;48.844;9.726;2024-03-02T03:32:25;94987.69;;;1.23;100.00
54038;BME280;39954;48.844;9.726;2024-03-02T03:33:27;94989.53;;;1.19;100.00
54038;BME280;39954;48.844;9.726;2024-03-02T03:34:32;94989.69;;;1.15;100.00
54038;BME280;39954;48.844;9.726;2024-03-02T03:35:35;94989.06;;;1.09;100.00
54038;BME280;39954;48.844;9.726;2024-03-02T03:36:41;94986.69;;;1.03;100.00
54038;BME280;39954;48.844;9.726;2024-03-02T03:37:43;94992.00;;;0.99;100.00
54038;BME280;39954;48.844;9.726;2024-03-02T03:38:45;94988.69;;;0.95;100.00
54038;BME280;39954;48.844;9.726;2024-03-02T03:39:50;94995.56;;;0.95;100.00
54038;BME280;39954;48.844;9.726;2024-03-02T03:40:52;94994.72;;;0.94;100.00
54038;BME280;39954;48.844;9.726;2024-03-02T03:41:59;94988.91;;;0.91;100.00
54038;BME280;39954;48.844;9.726;2024-03-02T03:43:01;95001.59;;;0.92;100.00
54038;BME280;39954;48.844;9.726;2024-03-02T03:44:06;94990.63;;;0.90;100.00
54038;BME280;39954;48.844;9.726;2024-03-02T03:45:09;94992.41;;;0.88;100.00
54038;BME280;39954;48.844;9.726;2024-03-02T03:46:11;94995.06;;;0.85;100.00
54038;BME280;39954;48.844;9.726;2024-03-02T03:47:16;94991.72;;;0.83;100.00
54038;BME280;39954;48.844;9.726;2024-03-02T03:48:18;95002.06;;;0.80;100.00
54038;BME280;39954;48.844;9.726;2024-03-02T03:49:23;94997.88;;;0.77;100.00
54038;BME280;39954;48.844;9.726;2024-03-02T03:50:25;95004.78;;;0.75;100.00
54038;BME280;39954;48.844;9.726;2024-03-02T03:51:33;95004.16;;;0.69;100.00
54038;BME280;39954;48.844;9.726;2024-03-02T03:52:35;95001.75;;;0.64;100.00
54038;BME280;39954;48.844;9.726;2024-03-02T03:53:40;95007.06;;;0.59;100.00
54038;BME280;39954;48.844;9.726;2024-03-02T03:54:42;95002.94;;;0.55;100.00
54038;BME280;39954;48.844;9.726;2024-03-02T03:55:47;94999.59;;;0.53;100.00
54038;BME280;39954;48.844;9.726;2024-03-02T03:56:51;95006.53;;;0.50;100.00
54038;BME280;39954;48.844;9.726;2024-03-02T03:57:58;95002.44;;;0.46;100.00
54038;BME280;39954;48.844;9.726;2024-03-02T03:59:00;94998.25;;;0.43;100.00
54038;BME280;39954;48.844;9.726;2024-03-02T04:00:08;95000.13;;;0.38;100.00
54038;BME280;39954;48.844;9.726;2024-03-02T04:01:12;95002.66;;;0.39;100.00
54038;BME280;39954;48.844;9.726;2024-03-02T04:02:17;95000.97;;;0.38;100.00
54038;BME280;39954;48.844;9.726;2024-03-02T04:03:19;95002.69;;;0.38;100.00
54038;BME280;39954;48.844;9.726;2024-03-02T04:04:23;95006.06;;;0.38;100.00
54038;BME280;39954;48.844;9.726;2024-03-02T04:05:26;95004.44;;;0.36;100.00
54038;BME280;39954;48.844;9.726;2024-03-02T04:06:31;95007.94;;;0.33;100.00
54038;BME280;39954;48.844;9.726;2024-03-02T04:07:33;94999.56;;;0.30;100.00
54038;BME280;39954;48.844;9.726;2024-03-02T04:08:41;95003.88;;;0.28;100.00
54038;BME280;39954;48.844;9.726;2024-03-02T04:09:46;95003.13;;;0.26;100.00
54038;BME280;39954;48.844;9.726;2024-03-02T04:10:48;94999.75;;;0.24;100.00
54038;BME280;39954;48.844;9.726;2024-03-02T04:11:53;94992.22;;;0.20;100.00
54038;BME280;39954;48.844;9.726;2024-03-02T04:12:58;94999.03;;;0.20;100.00
54038;BME280;39954;48.844;9.726;2024-03-02T04:14:03;94995.56;;;0.22;100.00
54038;BME280;39954;48.844;9.726;2024-03-02T04:15:08;94992.81;;;0.27;100.00
54038;BME280;39954;48.844;9.726;2024-03-02T04:16:13;95000.44;;;0.29;100.00
54038;BME280;39954;48.844;9.726;2024-03-02T04:17:15;94996.09;;;0.31;100.00
54038;BME280;39954;48.844;9.726;2024-03-02T04:18:20;95000.22;;;0.35;100.00
54038;BME280;39954;48.844;9.726;2024-03-02T04:19:22;95008.69;;;0.37;100.00
54038;BME280;39954;48.844;9.726;2024-03-02T04:20:27;94996.66;;;0.39;100.00
54038;BME280;39954;48.844;9.726;2024-03-02T04:21:29;95003.38;;;0.43;100.00
54038;BME280;39954;48.844;9.726;2024-03-02T04:22:34;95005.81;;;0.46;100.00
54038;BME280;39954;48.844;9.726;2024-03-02T04:23:36;95003.97;;;0.50;100.00
54038;BME280;39954;48.844;9.726;2024-03-02T04:24:41;95001.38;;;0.51;100.00
54038;BME280;39954;48.844;9.726;2024-03-02T04:25:43;95003.03;;;0.52;100.00
54038;BME280;39954;48.844;9.726;2024-03-02T04:26:48;95002.22;;;0.52;100.00
54038;BME280;39954;48.844;9.726;2024-03-02T04:27:50;95008.16;;;0.52;100.00
54038;BME280;39954;48.844;9.726;2024-03-02T04:28:57;95005.66;;;0.51;100.00
54038;BME280;39954;48.844;9.726;2024-03-02T04:30:00;95001.38;;;0.51;100.00
54038;BME280;39954;48.844;9.726;2024-03-02T04:31:05;95009.09;;;0.50;100.00
54038;BME280;39954;48.844;9.726;2024-03-02T04:32:07;95004.91;;;0.47;100.00
54038;BME280;39954;48.844;9.726;2024-03-02T04:33:12;95001.53;;;0.47;100.00
54038;BME280;39954;48.844;9.726;2024-03-02T04:34:14;95010.91;;;0.46;100.00
54038;BME280;39954;48.844;9.726;2024-03-02T04:35:19;95008.38;;;0.46;100.00
54038;BME280;39954;48.844;9.726;2024-03-02T04:36:21;95012.59;;;0.47;100.00
54038;BME280;39954;48.844;9.726;2024-03-02T04:37:26;95010.91;;;0.46;100.00
54038;BME280;39954;48.844;9.726;2024-03-02T04:38:28;95014.31;;;0.47;100.00
54038;BME280;39954;48.844;9.726;2024-03-02T04:39:34;95005.09;;;0.42;100.00
54038;BME280;39954;48.844;9.726;2024-03-02T04:40:36;95006.84;;;0.40;100.00
54038;BME280;39954;48.844;9.726;2024-03-02T04:41:41;94999.19;;;0.40;100.00
54038;BME280;39954;48.844;9.726;2024-03-02T04:42:43;95004.34;;;0.39;100.00
54038;BME280;39954;48.844;9.726;2024-03-02T04:43:48;95003.47;;;0.40;100.00
54038;BME280;39954;48.844;9.726;2024-03-02T04:44:53;95000.00;;;0.41;100.00
54038;BME280;39954;48.844;9.726;2024-03-02T04:45:58;95000.81;;;0.43;100.00
54038;BME280;39954;48.844;9.726;2024-03-02T04:47:00;95008.47;;;0.43;100.00
54038;BME280;39954;48.844;9.726;2024-03-02T04:48:06;95005.97;;;0.41;100.00
54038;BME280;39954;48.844;9.726;2024-03-02T04:49:08;95010.91;;;0.46;100.00
54038;BME280;39954;48.844;9.726;2024-03-02T04:50:13;94994.75;;;0.46;100.00
54038;BME280;39954;48.844;9.726;2024-03-02T04:51:15;95005.84;;;0.44;100.00
54038;BME280;39954;48.844;9.726;2024-03-02T04:52:20;95006.72;;;0.45;100.00
54038;BME280;39954;48.844;9.726;2024-03-02T04:53:22;95005.03;;;0.44;100.00
54038;BME280;39954;48.844;9.726;2024-03-02T04:54:24;95013.47;;;0.46;100.00
54038;BME280;39954;48.844;9.726;2024-03-02T04:55:29;95009.19;;;0.47;100.00
54038;BME280;39954;48.844;9.726;2024-03-02T04:56:54;95011.75;;;0.47;100.00
54038;BME280;39954;48.844;9.726;2024-03-02T04:57:58;95009.16;;;0.48;100.00
54038;BME280;39954;48.844;9.726;2024-03-02T04:59:01;95013.41;;;0.48;100.00
54038;BME280;39954;48.844;9.726;2024-03-02T05:00:09;95013.47;;;0.46;100.00
54038;BME280;39954;48.844;9.726;2024-03-02T05:01:12;95020.25;;;0.47;100.00
54038;BME280;39954;48.844;9.726;2024-03-02T05:02:18;95018.59;;;0.46;100.00
54038;BME280;39954;48.844;9.726;2024-03-02T05:03:20;95014.31;;;0.47;100.00
54038;BME280;39954;48.844;9.726;2024-03-02T05:04:26;95009.91;;;0.50;100.00
54038;BME280;39954;48.844;9.726;2024-03-02T05:05:28;95013.34;;;0.51;100.00
54038;BME280;39954;48.844;9.726;2024-03-02T05:06:33;95015.94;;;0.49;100.00
54038;BME280;39954;48.844;9.726;2024-03-02T05:07:35;95014.16;;;0.51;100.00
54038;BME280;39954;48.844;9.726;2024-03-02T05:08:39;95016.72;;;0.51;100.00
54038;BME280;39954;48.844;9.726;2024-03-02T05:09:42;95019.19;;;0.53;100.00
54038;BME280;39954;48.844;9.726;2024-03-02T05:10:46;95016.72;;;0.51;100.00
54038;BME280;39954;48.844;9.726;2024-03-02T05:11:49;95011.59;;;0.51;100.00
54038;BME280;39954;48.844;9.726;2024-03-02T05:13:07;95019.28;;;0.51;100.00
54038;BME280;39954;48.844;9.726;2024-03-02T05:14:12;95009.03;;;0.51;100.00
54038;BME280;39954;48.844;9.726;2024-03-02T05:15:16;95019.28;;;0.51;100.00
54038;BME280;39954;48.844;9.726;2024-03-02T05:16:20;95015.03;;;0.50;100.00
54038;BME280;39954;48.844;9.726;2024-03-02T05:17:25;95009.91;;;0.50;100.00
54038;BME280;39954;48.844;9.726;2024-03-02T05:18:27;95013.38;;;0.49;100.00
54038;BME280;39954;48.844;9.726;2024-03-02T05:19:31;95023.59;;;0.49;100.00
54038;BME280;39954;48.844;9.726;2024-03-02T05:20:34;95023.59;;;0.49;100.00
54038;BME280;39954;48.844;9.726;2024-03-02T05:21:38;95015.94;;;0.49;100.00
54038;BME280;39954;48.844;9.726;2024-03-02T05:22:40;95017.59;;;0.50;100.00
54038;BME280;39954;48.844;9.726;2024-03-02T05:23:43;95019.28;;;0.51;100.00
54038;BME280;39954;48.844;9.726;2024-03-02T05:24:48;95013.25;;;0.52;100.00
54038;BME280;39954;48.844;9.726;2024-03-02T05:25:51;95016.59;;;0.54;100.00
54038;BME280;39954;48.844;9.726;2024-03-02T05:26:56;95015.66;;;0.57;100.00
54038;BME280;39954;48.844;9.726;2024-03-02T05:27:58;95023.34;;;0.57;100.00
54038;BME280;39954;48.844;9.726;2024-03-02T05:29:03;95016.50;;;0.57;100.00
54038;BME280;39954;48.844;9.726;2024-03-02T05:30:06;95024.13;;;0.59;100.00
54038;BME280;39954;48.844;9.726;2024-03-02T05:31:15;95016.38;;;0.60;100.00
54038;BME280;39954;48.844;9.726;2024-03-02T05:32:17;95015.50;;;0.61;100.00
54038;BME280;39954;48.844;9.726;2024-03-02T05:33:22;95019.78;;;0.61;100.00
54038;BME280;39954;48.844;9.726;2024-03-02T05:34:24;95019.84;;;0.59;100.00
54038;BME280;39954;48.844;9.726;2024-03-02T05:35:29;95020.72;;;0.58;100.00
54038;BME280;39954;48.844;9.726;2024-03-02T05:36:31;95017.31;;;0.58;100.00
54038;BME280;39954;48.844;9.726;2024-03-02T05:37:36;95014.88;;;0.55;100.00
54038;BME280;39954;48.844;9.726;2024-03-02T05:38:38;95016.66;;;0.53;100.00
54038;BME280;39954;48.844;9.726;2024-03-02T05:39:45;95014.16;;;0.51;100.00
54038;BME280;39954;48.844;9.726;2024-03-02T05:40:47;95022.69;;;0.50;100.00